sensor_id;sensor_type;location;lat;lon;timestamp;temperature;humidity
71672;DHT22;67659;45.554;11.812;2023-04-07T00:01:05;9.00;85.60
71672;DHT22;67659;45.554;11.812;2023-04-07T00:03:30;9.00;85.50
71672;DHT22;67659;45.554;11.812;2023-04-07T00:05:56;8.90;85.80
71672;DHT22;67659;45.554;11.812;2023-04-07T00:08:22;9.00;82.60
71672;DHT22;67659;45.554;11.812;2023-04-07T00:10:48;8.90;86.00
71672;DHT22;67659;45.554;11.812;2023-04-07T00:13:14;8.70;88.70
71672;DHT22;67659;45.554;11.812;2023-04-07T00:15:40;8.80;90.30
71672;DHT22;67659;45.554;11.812;2023-04-07T00:18:06;8.80;90.80
71672;DHT22;67659;45.554;11.812;2023-04-07T00:20:32;8.80;90.40
71672;DHT22;67659;45.554;11.812;2023-04-07T00:22:57;8.70;90.70
71672;DHT22;67659;45.554;11.812;2023-04-07T00:25:23;8.70;91.00
71672;DHT22;67659;45.554;11.812;2023-04-07T00:27:49;8.70;88.60
71672;DHT22;67659;45.554;11.812;2023-04-07T00:30:15;8.80;88.60
71672;DHT22;67659;45.554;11.812;2023-04-07T00:32:42;8.60;90.10
71672;DHT22;67659;45.554;11.812;2023-04-07T00:35:08;8.60;95.50
71672;DHT22;67659;45.554;11.812;2023-04-07T00:37:34;8.50;91.10
71672;DHT22;67659;45.554;11.812;2023-04-07T00:40:00;8.60;92.40
71672;DHT22;67659;45.554;11.812;2023-04-07T00:42:26;8.50;91.50
71672;DHT22;67659;45.554;11.812;2023-04-07T00:44:51;8.50;84.10
71672;DHT22;67659;45.554;11.812;2023-04-07T00:47:17;8.40;88.50
71672;DHT22;67659;45.554;11.812;2023-04-07T00:49:43;8.30;89.90
71672;DHT22;67659;45.554;11.812;2023-04-07T00:52:09;8.40;91.90
71672;DHT22;67659;45.554;11.812;2023-04-07T00:54:37;8.40;87.10
71672;DHT22;67659;45.554;11.812;2023-04-07T00:57:04;8.20;89.50
71672;DHT22;67659;45.554;11.812;2023-04-07T00:59:30;8.00;89.40
71672;DHT22;67659;45.554;11.812;2023-04-07T01:02:25;8.00;93.90
71672;DHT22;67659;45.554;11.812;2023-04-07T01:05:02;8.00;95.30
71672;DHT22;67659;45.554;11.812;2023-04-07T01:10:14;8.00;90.80
71672;DHT22;67659;45.554;11.812;2023-04-07T01:13:22;8.00;89.60
71672;DHT22;67659;45.554;11.812;2023-04-07T01:15:51;8.00;94.00
71672;DHT22;67659;45.554;11.812;2023-04-07T01:18:25;7.90;94.70
71672;DHT22;67659;45.554;11.812;2023-04-07T01:20:58;7.80;91.70
71672;DHT22;67659;45.554;11.812;2023-04-07T01:23:42;8.10;92.70
71672;DHT22;67659;45.554;11.812;2023-04-07T01:26:30;8.00;93.40
71672;DHT22;67659;45.554;11.812;2023-04-07T01:31:58;7.90;93.90
71672;DHT22;67659;45.554;11.812;2023-04-07T01:34:26;7.90;89.70
71672;DHT22;67659;45.554;11.812;2023-04-07T01:36:53;7.90;88.70
71672;DHT22;67659;45.554;11.812;2023-04-07T01:39:21;7.90;94.40
71672;DHT22;67659;45.554;11.812;2023-04-07T01:41:48;7.80;90.50
71672;DHT22;67659;45.554;11.812;2023-04-07T01:44:18;7.90;89.00
71672;DHT22;67659;45.554;11.812;2023-04-07T01:46:45;7.90;88.90
71672;DHT22;67659;45.554;11.812;2023-04-07T01:49:12;7.80;86.50
71672;DHT22;67659;45.554;11.812;2023-04-07T01:51:40;7.50;84.30
71672;DHT22;67659;45.554;11.812;2023-04-07T01:54:08;7.50;85.80
71672;DHT22;67659;45.554;11.812;2023-04-07T01:56:34;7.50;87.40
71672;DHT22;67659;45.554;11.812;2023-04-07T01:58:59;7.30;88.30
71672;DHT22;67659;45.554;11.812;2023-04-07T02:01:25;7.30;90.50
71672;DHT22;67659;45.554;11.812;2023-04-07T02:04:04;7.40;90.10
71672;DHT22;67659;45.554;11.812;2023-04-07T02:06:37;7.40;89.30
71672;DHT22;67659;45.554;11.812;2023-04-07T02:09:06;7.40;95.40
71672;DHT22;67659;45.554;11.812;2023-04-07T02:11:36;7.40;94.70
71672;DHT22;67659;45.554;11.812;2023-04-07T02:14:04;7.30;95.20
71672;DHT22;67659;45.554;11.812;2023-04-07T02:16:32;7.40;91.20
71672;DHT22;67659;45.554;11.812;2023-04-07T02:18:58;7.30;91.50
71672;DHT22;67659;45.554;11.812;2023-04-07T02:21:26;7.30;91.80
71672;DHT22;67659;45.554;11.812;2023-04-07T02:23:52;7.20;90.70
71672;DHT22;67659;45.554;11.812;2023-04-07T02:26:18;7.30;90.90
71672;DHT22;67659;45.554;11.812;2023-04-07T02:28:43;7.20;92.80
71672;DHT22;67659;45.554;11.812;2023-04-07T02:31:09;7.20;91.20
71672;DHT22;67659;45.554;11.812;2023-04-07T02:33:38;7.00;95.20
71672;DHT22;67659;45.554;11.812;2023-04-07T02:36:04;6.90;97.20
71672;DHT22;67659;45.554;11.812;2023-04-07T02:38:31;7.00;98.00
71672;DHT22;67659;45.554;11.812;2023-04-07T02:40:57;6.80;93.90
71672;DHT22;67659;45.554;11.812;2023-04-07T02:43:24;7.00;92.00
71672;DHT22;67659;45.554;11.812;2023-04-07T02:45:50;6.80;95.40
71672;DHT22;67659;45.554;11.812;2023-04-07T02:48:16;6.80;93.80
71672;DHT22;67659;45.554;11.812;2023-04-07T02:50:41;7.00;96.30
71672;DHT22;67659;45.554;11.812;2023-04-07T02:53:07;6.90;92.10
71672;DHT22;67659;45.554;11.812;2023-04-07T02:55:33;7.10;93.40
71672;DHT22;67659;45.554;11.812;2023-04-07T02:57:59;7.10;89.10
71672;DHT22;67659;45.554;11.812;2023-04-07T03:00:25;6.90;87.50
71672;DHT22;67659;45.554;11.812;2023-04-07T03:02:51;6.90;92.60
71672;DHT22;67659;45.554;11.812;2023-04-07T03:05:16;6.80;89.70
71672;DHT22;67659;45.554;11.812;2023-04-07T03:07:42;6.90;90.20
71672;DHT22;67659;45.554;11.812;2023-04-07T03:10:11;6.90;92.30
71672;DHT22;67659;45.554;11.812;2023-04-07T03:12:37;6.60;95.60
71672;DHT22;67659;45.554;11.812;2023-04-07T03:15:03;6.80;93.50
71672;DHT22;67659;45.554;11.812;2023-04-07T03:17:29;6.90;98.50
71672;DHT22;67659;45.554;11.812;2023-04-07T03:19:55;7.00;91.60
71672;DHT22;67659;45.554;11.812;2023-04-07T03:22:21;7.00;96.10
71672;DHT22;67659;45.554;11.812;2023-04-07T03:24:47;7.00;99.90
71672;DHT22;67659;45.554;11.812;2023-04-07T03:27:13;6.80;99.90
71672;DHT22;67659;45.554;11.812;2023-04-07T03:29:39;6.70;99.90
71672;DHT22;67659;45.554;11.812;2023-04-07T03:32:04;6.90;99.90
71672;DHT22;67659;45.554;11.812;2023-04-07T03:34:30;6.80;99.90
71672;DHT22;67659;45.554;11.812;2023-04-07T03:36:56;6.80;98.20
71672;DHT22;67659;45.554;11.812;2023-04-07T03:39:21;7.00;99.90
71672;DHT22;67659;45.554;11.812;2023-04-07T03:41:47;7.00;98.10
71672;DHT22;67659;45.554;11.812;2023-04-07T03:44:13;7.00;97.70
71672;DHT22;67659;45.554;11.812;2023-04-07T03:46:38;7.00;98.10
71672;DHT22;67659;45.554;11.812;2023-04-07T03:49:04;7.00;94.70
71672;DHT22;67659;45.554;11.812;2023-04-07T03:51:31;7.20;99.90
71672;DHT22;67659;45.554;11.812;2023-04-07T03:53:58;7.00;99.90
71672;DHT22;67659;45.554;11.812;2023-04-07T03:56:24;7.20;98.90
71672;DHT22;67659;45.554;11.812;2023-04-07T03:58:50;6.80;98.80
71672;DHT22;67659;45.554;11.812;2023-04-07T04:01:16;6.30;99.90
71672;DHT22;67659;45.554;11.812;2023-04-07T04:03:42;6.20;99.90
71672;DHT22;67659;45.554;11.812;2023-04-07T04:06:07;6.00;99.90
71672;DHT22;67659;45.554;11.812;2023-04-07T04:08:33;6.20;99.90
71672;DHT22;67659;45.554;11.812;2023-04-07T04:10:59;6.30;99.90
71672;DHT22;67659;45.554;11.812;2023-04-07T04:13:24;6.50;99.90
71672;DHT22;67659;45.554;11.812;2023-04-07T04:15:50;6.50;99.90
71672;DHT22;67659;45.554;11.812;2023-04-07T04:18:16;6.60;99.20
71672;DHT22;67659;45.554;11.812;2023-04-07T04:20:42;6.80;99.10
71672;DHT22;67659;45.554;11.812;2023-04-07T04:23:08;6.80;98.20
71672;DHT22;67659;45.554;11.812;2023-04-07T04:25:33;6.70;99.90
71672;DHT22;67659;45.554;11.812;2023-04-07T04:27:59;6.70;99.90
71672;DHT22;67659;45.554;11.812;2023-04-07T04:30:26;6.70;99.90
71672;DHT22;67659;45.554;11.812;2023-04-07T04:32:52;6.60;96.10
71672;DHT22;67659;45.554;11.812;2023-04-07T04:35:18;6.80;97.20
71672;DHT22;67659;45.554;11.812;2023-04-07T04:37:43;6.60;96.50
71672;DHT22;67659;45.554;11.812;2023-04-07T04:40:09;6.70;93.60
71672;DHT22;67659;45.554;11.812;2023-04-07T04:42:36;6.70;94.20
71672;DHT22;67659;45.554;11.812;2023-04-07T04:45:01;6.50;95.30
71672;DHT22;67659;45.554;11.812;2023-04-07T04:47:27;6.60;97.30
71672;DHT22;67659;45.554;11.812;2023-04-07T04:49:53;6.50;98.60
71672;DHT22;67659;45.554;11.812;2023-04-07T04:52:18;6.40;97.90
71672;DHT22;67659;45.554;11.812;2023-04-07T04:54:44;6.50;99.90
71672;DHT22;67659;45.554;11.812;2023-04-07T04:57:10;6.50;99.00
71672;DHT22;67659;45.554;11.812;2023-04-07T04:59:35;6.60;97.70
71672;DHT22;67659;45.554;11.812;2023-04-07T05:02:01;6.60;99.90
71672;DHT22;67659;45.554;11.812;2023-04-07T05:04:27;6.70;99.90
71672;DHT22;67659;45.554;11.812;2023-04-07T05:06:52;6.70;99.90
71672;DHT22;67659;45.554;11.812;2023-04-07T05:09:18;6.80;99.90
71672;DHT22;67659;45.554;11.812;2023-04-07T05:11:44;6.80;99.50
71672;DHT22;67659;45.554;11.812;2023-04-07T05:14:10;6.70;99.90
71672;DHT22;67659;45.554;11.812;2023-04-07T05:16:35;6.70;99.90
71672;DHT22;67659;45.554;11.812;2023-04-07T05:19:01;6.70;99.90
71672;DHT22;67659;45.554;11.812;2023-04-07T05:21:27;6.90;99.80
71672;DHT22;67659;45.554;11.812;2023-04-07T05:23:52;7.10;99.90
71672;DHT22;67659;45.554;11.812;2023-04-07T05:26:18;7.40;96.70
71672;DHT22;67659;45.554;11.812;2023-04-07T05:28:44;7.60;93.60
71672;DHT22;67659;45.554;11.812;2023-04-07T05:31:10;7.90;91.10
71672;DHT22;67659;45.554;11.812;2023-04-07T05:33:35;7.90;89.50
71672;DHT22;67659;45.554;11.812;2023-04-07T05:36:01;8.10;89.00
71672;DHT22;67659;45.554;11.812;2023-04-07T05:38:27;8.10;87.80
71672;DHT22;67659;45.554;11.812;2023-04-07T05:40:52;8.30;86.70
71672;DHT22;67659;45.554;11.812;2023-04-07T05:43:18;8.10;87.20
71672;DHT22;67659;45.554;11.812;2023-04-07T05:45:44;7.90;90.00
71672;DHT22;67659;45.554;11.812;2023-04-07T05:48:10;7.90;91.20
71672;DHT22;67659;45.554;11.812;2023-04-07T05:50:36;7.80;90.30
71672;DHT22;67659;45.554;11.812;2023-04-07T05:53:01;7.90;90.50
71672;DHT22;67659;45.554;11.812;2023-04-07T05:55:27;8.00;89.80
71672;DHT22;67659;45.554;11.812;2023-04-07T05:57:53;8.20;90.70
71672;DHT22;67659;45.554;11.812;2023-04-07T06:00:19;8.30;89.50
71672;DHT22;67659;45.554;11.812;2023-04-07T06:02:45;8.20;88.00
71672;DHT22;67659;45.554;11.812;2023-04-07T06:05:11;8.20;88.80
71672;DHT22;67659;45.554;11.812;2023-04-07T06:07:36;8.30;88.30
71672;DHT22;67659;45.554;11.812;2023-04-07T06:10:02;8.30;90.00
71672;DHT22;67659;45.554;11.812;2023-04-07T06:12:28;8.20;90.90
71672;DHT22;67659;45.554;11.812;2023-04-07T06:14:55;8.40;88.50
71672;DHT22;67659;45.554;11.812;2023-04-07T06:17:21;8.60;86.80
71672;DHT22;67659;45.554;11.812;2023-04-07T06:19:47;8.90;88.40
71672;DHT22;67659;45.554;11.812;2023-04-07T06:22:13;9.40;85.00
71672;DHT22;67659;45.554;11.812;2023-04-07T06:24:39;10.70;82.40
71672;DHT22;67659;45.554;11.812;2023-04-07T06:27:04;12.40;79.30
71672;DHT22;67659;45.554;11.812;2023-04-07T06:29:32;13.60;76.40
71672;DHT22;67659;45.554;11.812;2023-04-07T06:31:58;14.80;74.30
71672;DHT22;67659;45.554;11.812;2023-04-07T06:34:25;15.80;71.60
71672;DHT22;67659;45.554;11.812;2023-04-07T06:36:51;16.90;66.10
71672;DHT22;67659;45.554;11.812;2023-04-07T06:39:17;17.80;62.90
71672;DHT22;67659;45.554;11.812;2023-04-07T06:41:43;18.80;57.50
71672;DHT22;67659;45.554;11.812;2023-04-07T06:44:09;19.40;57.50
71672;DHT22;67659;45.554;11.812;2023-04-07T06:46:38;19.90;55.80
71672;DHT22;67659;45.554;11.812;2023-04-07T06:49:04;20.60;53.60
71672;DHT22;67659;45.554;11.812;2023-04-07T06:51:29;20.80;54.20
71672;DHT22;67659;45.554;11.812;2023-04-07T06:53:56;21.50;50.40
71672;DHT22;67659;45.554;11.812;2023-04-07T06:56:22;21.20;47.30
71672;DHT22;67659;45.554;11.812;2023-04-07T06:58:48;21.30;47.60
71672;DHT22;67659;45.554;11.812;2023-04-07T07:01:14;21.20;47.80
71672;DHT22;67659;45.554;11.812;2023-04-07T07:03:40;21.30;50.00
71672;DHT22;67659;45.554;11.812;2023-04-07T07:06:06;21.20;47.80
71672;DHT22;67659;45.554;11.812;2023-04-07T07:08:31;20.80;49.50
71672;DHT22;67659;45.554;11.812;2023-04-07T07:10:57;21.10;49.60
71672;DHT22;67659;45.554;11.812;2023-04-07T07:14:42;21.20;56.80
71672;DHT22;67659;45.554;11.812;2023-04-07T07:17:08;22.20;54.50
71672;DHT22;67659;45.554;11.812;2023-04-07T07:19:34;22.40;54.90
71672;DHT22;67659;45.554;11.812;2023-04-07T07:22:01;22.50;55.00
71672;DHT22;67659;45.554;11.812;2023-04-07T07:24:29;22.60;55.80
71672;DHT22;67659;45.554;11.812;2023-04-07T07:26:56;22.50;55.70
71672;DHT22;67659;45.554;11.812;2023-04-07T07:29:22;22.50;56.30
71672;DHT22;67659;45.554;11.812;2023-04-07T07:31:48;22.50;56.50
71672;DHT22;67659;45.554;11.812;2023-04-07T07:34:13;22.50;56.80
71672;DHT22;67659;45.554;11.812;2023-04-07T07:36:39;22.50;57.30
71672;DHT22;67659;45.554;11.812;2023-04-07T07:39:05;22.50;57.30
71672;DHT22;67659;45.554;11.812;2023-04-07T07:41:31;22.50;57.70
71672;DHT22;67659;45.554;11.812;2023-04-07T07:43:57;22.40;57.80
71672;DHT22;67659;45.554;11.812;2023-04-07T07:46:23;22.50;57.00
71672;DHT22;67659;45.554;11.812;2023-04-07T07:48:50;22.60;57.70
71672;DHT22;67659;45.554;11.812;2023-04-07T07:51:16;22.50;57.70
71672;DHT22;67659;45.554;11.812;2023-04-07T07:53:43;22.50;58.20
71672;DHT22;67659;45.554;11.812;2023-04-07T07:56:11;22.50;58.00
71672;DHT22;67659;45.554;11.812;2023-04-07T07:58:37;22.60;58.00
71672;DHT22;67659;45.554;11.812;2023-04-07T08:01:03;22.60;58.20
71672;DHT22;67659;45.554;11.812;2023-04-07T08:03:29;22.60;58.10
71672;DHT22;67659;45.554;11.812;2023-04-07T08:05:55;22.60;58.10
71672;DHT22;67659;45.554;11.812;2023-04-07T08:08:20;22.60;58.10
71672;DHT22;67659;45.554;11.812;2023-04-07T08:10:46;22.70;57.80
71672;DHT22;67659;45.554;11.812;2023-04-07T08:13:13;22.80;57.60
71672;DHT22;67659;45.554;11.812;2023-04-07T08:15:39;22.80;58.90
71672;DHT22;67659;45.554;11.812;2023-04-07T08:18:05;22.70;59.80
71672;DHT22;67659;45.554;11.812;2023-04-07T08:20:32;22.80;60.40
71672;DHT22;67659;45.554;11.812;2023-04-07T08:22:58;22.80;61.30
71672;DHT22;67659;45.554;11.812;2023-04-07T08:25:25;22.70;61.90
71672;DHT22;67659;45.554;11.812;2023-04-07T08:27:50;22.70;61.80
71672;DHT22;67659;45.554;11.812;2023-04-07T08:30:16;22.70;61.20
71672;DHT22;67659;45.554;11.812;2023-04-07T08:32:43;22.70;61.30
71672;DHT22;67659;45.554;11.812;2023-04-07T08:35:10;22.80;61.10
71672;DHT22;67659;45.554;11.812;2023-04-07T08:37:37;22.70;60.90
71672;DHT22;67659;45.554;11.812;2023-04-07T08:40:04;22.70;60.00
71672;DHT22;67659;45.554;11.812;2023-04-07T08:42:32;22.70;60.10
71672;DHT22;67659;45.554;11.812;2023-04-07T08:45:07;22.80;59.70
71672;DHT22;67659;45.554;11.812;2023-04-07T08:47:35;22.70;60.20
71672;DHT22;67659;45.554;11.812;2023-04-07T08:50:04;22.70;59.70
71672;DHT22;67659;45.554;11.812;2023-04-07T08:52:44;22.60;59.90
71672;DHT22;67659;45.554;11.812;2023-04-07T08:55:11;22.70;59.20
71672;DHT22;67659;45.554;11.812;2023-04-07T08:57:38;22.70;59.60
71672;DHT22;67659;45.554;11.812;2023-04-07T09:00:04;22.70;59.00
71672;DHT22;67659;45.554;11.812;2023-04-07T09:02:37;22.70;58.80
71672;DHT22;67659;45.554;11.812;2023-04-07T09:05:05;22.60;58.40
71672;DHT22;67659;45.554;11.812;2023-04-07T09:07:32;22.70;58.40
71672;DHT22;67659;45.554;11.812;2023-04-07T09:09:58;22.70;58.40
71672;DHT22;67659;45.554;11.812;2023-04-07T09:12:25;22.70;58.60
71672;DHT22;67659;45.554;11.812;2023-04-07T09:14:52;22.70;58.40
71672;DHT22;67659;45.554;11.812;2023-04-07T09:17:19;22.70;58.00
71672;DHT22;67659;45.554;11.812;2023-04-07T09:19:46;22.70;58.40
71672;DHT22;67659;45.554;11.812;2023-04-07T09:22:12;22.80;57.90
71672;DHT22;67659;45.554;11.812;2023-04-07T09:24:40;22.70;58.30
71672;DHT22;67659;45.554;11.812;2023-04-07T09:29:35;22.80;58.50
71672;DHT22;67659;45.554;11.812;2023-04-07T09:32:02;22.90;58.60
71672;DHT22;67659;45.554;11.812;2023-04-07T09:34:36;22.80;59.10
71672;DHT22;67659;45.554;11.812;2023-04-07T09:37:04;22.90;59.70
71672;DHT22;67659;45.554;11.812;2023-04-07T09:39:31;22.80;59.60
71672;DHT22;67659;45.554;11.812;2023-04-07T09:41:57;22.90;60.20
71672;DHT22;67659;45.554;11.812;2023-04-07T09:44:24;22.80;60.40
71672;DHT22;67659;45.554;11.812;2023-04-07T09:46:52;22.90;60.40
71672;DHT22;67659;45.554;11.812;2023-04-07T09:49:19;22.80;60.70
71672;DHT22;67659;45.554;11.812;2023-04-07T09:51:59;22.80;60.20
71672;DHT22;67659;45.554;11.812;2023-04-07T09:54:38;22.80;60.20
71672;DHT22;67659;45.554;11.812;2023-04-07T09:57:06;22.80;60.10
71672;DHT22;67659;45.554;11.812;2023-04-07T09:59:33;22.80;60.20
71672;DHT22;67659;45.554;11.812;2023-04-07T10:02:00;22.80;60.80
71672;DHT22;67659;45.554;11.812;2023-04-07T10:04:26;22.90;61.00
71672;DHT22;67659;45.554;11.812;2023-04-07T10:06:52;22.90;61.40
71672;DHT22;67659;45.554;11.812;2023-04-07T10:09:19;22.90;61.60
71672;DHT22;67659;45.554;11.812;2023-04-07T10:11:49;22.90;61.50
71672;DHT22;67659;45.554;11.812;2023-04-07T10:14:16;22.90;61.90
71672;DHT22;67659;45.554;11.812;2023-04-07T10:16:42;22.90;61.90
71672;DHT22;67659;45.554;11.812;2023-04-07T10:19:09;22.90;61.70
71672;DHT22;67659;45.554;11.812;2023-04-07T10:21:38;22.90;61.30
71672;DHT22;67659;45.554;11.812;2023-04-07T10:24:23;23.00;61.40
71672;DHT22;67659;45.554;11.812;2023-04-07T10:27:04;23.00;61.80
71672;DHT22;67659;45.554;11.812;2023-04-07T10:29:38;23.00;61.30
71672;DHT22;67659;45.554;11.812;2023-04-07T10:32:05;23.00;61.80
71672;DHT22;67659;45.554;11.812;2023-04-07T10:37:13;23.10;60.90
71672;DHT22;67659;45.554;11.812;2023-04-07T10:39:42;23.00;60.90
71672;DHT22;67659;45.554;11.812;2023-04-07T10:45:07;23.00;61.00
71672;DHT22;67659;45.554;11.812;2023-04-07T10:47:34;23.00;60.90
71672;DHT22;67659;45.554;11.812;2023-04-07T10:52:44;23.10;61.50
71672;DHT22;67659;45.554;11.812;2023-04-07T10:58:21;23.00;60.60
71672;DHT22;67659;45.554;11.812;2023-04-07T11:03:27;23.00;60.40
71672;DHT22;67659;45.554;11.812;2023-04-07T11:06:07;23.00;60.20
71672;DHT22;67659;45.554;11.812;2023-04-07T11:08:34;23.00;60.10
71672;DHT22;67659;45.554;11.812;2023-04-07T11:11:00;23.00;59.50
71672;DHT22;67659;45.554;11.812;2023-04-07T11:13:26;23.00;56.70
71672;DHT22;67659;45.554;11.812;2023-04-07T11:15:52;22.80;55.10
71672;DHT22;67659;45.554;11.812;2023-04-07T11:18:20;22.80;54.10
71672;DHT22;67659;45.554;11.812;2023-04-07T11:20:47;22.70;52.80
71672;DHT22;67659;45.554;11.812;2023-04-07T11:23:17;22.60;51.70
71672;DHT22;67659;45.554;11.812;2023-04-07T11:25:46;22.60;50.30
71672;DHT22;67659;45.554;11.812;2023-04-07T11:28:13;22.40;50.40
71672;DHT22;67659;45.554;11.812;2023-04-07T11:30:50;22.50;50.10
71672;DHT22;67659;45.554;11.812;2023-04-07T11:33:21;22.50;49.80
71672;DHT22;67659;45.554;11.812;2023-04-07T11:35:53;22.40;50.10
71672;DHT22;67659;45.554;11.812;2023-04-07T11:38:21;22.50;49.60
71672;DHT22;67659;45.554;11.812;2023-04-07T11:40:47;22.40;48.10
71672;DHT22;67659;45.554;11.812;2023-04-07T11:43:24;22.30;47.00
71672;DHT22;67659;45.554;11.812;2023-04-07T11:48:34;22.10;45.50
71672;DHT22;67659;45.554;11.812;2023-04-07T11:51:01;22.10;46.60
71672;DHT22;67659;45.554;11.812;2023-04-07T11:53:32;22.10;47.00
71672;DHT22;67659;45.554;11.812;2023-04-07T11:56:07;22.10;47.60
71672;DHT22;67659;45.554;11.812;2023-04-07T11:58:37;22.10;47.60
71672;DHT22;67659;45.554;11.812;2023-04-07T12:01:05;22.30;47.90
71672;DHT22;67659;45.554;11.812;2023-04-07T12:03:35;22.30;48.20
71672;DHT22;67659;45.554;11.812;2023-04-07T12:06:02;22.40;47.90
71672;DHT22;67659;45.554;11.812;2023-04-07T12:08:41;22.40;48.50
71672;DHT22;67659;45.554;11.812;2023-04-07T12:11:08;22.40;48.90
71672;DHT22;67659;45.554;11.812;2023-04-07T12:13:37;22.40;48.90
71672;DHT22;67659;45.554;11.812;2023-04-07T12:16:03;22.40;49.00
71672;DHT22;67659;45.554;11.812;2023-04-07T12:18:30;22.50;49.30
71672;DHT22;67659;45.554;11.812;2023-04-07T12:20:55;22.40;49.30
71672;DHT22;67659;45.554;11.812;2023-04-07T12:23:23;22.40;49.50
71672;DHT22;67659;45.554;11.812;2023-04-07T12:25:50;22.50;49.40
71672;DHT22;67659;45.554;11.812;2023-04-07T12:28:16;22.60;49.30
71672;DHT22;67659;45.554;11.812;2023-04-07T12:30:42;22.40;49.40
71672;DHT22;67659;45.554;11.812;2023-04-07T12:33:09;22.50;49.70
71672;DHT22;67659;45.554;11.812;2023-04-07T12:35:34;22.50;49.60
71672;DHT22;67659;45.554;11.812;2023-04-07T12:38:00;22.50;49.20
71672;DHT22;67659;45.554;11.812;2023-04-07T12:40:27;22.50;49.50
71672;DHT22;67659;45.554;11.812;2023-04-07T12:42:53;22.60;49.80
71672;DHT22;67659;45.554;11.812;2023-04-07T12:45:23;22.50;49.70
71672;DHT22;67659;45.554;11.812;2023-04-07T12:47:48;22.50;49.70
71672;DHT22;67659;45.554;11.812;2023-04-07T12:50:14;22.50;49.50
71672;DHT22;67659;45.554;11.812;2023-04-07T12:52:40;22.50;49.80
71672;DHT22;67659;45.554;11.812;2023-04-07T12:55:06;22.40;49.40
71672;DHT22;67659;45.554;11.812;2023-04-07T12:57:32;22.40;49.30
71672;DHT22;67659;45.554;11.812;2023-04-07T12:59:58;22.50;49.60
71672;DHT22;67659;45.554;11.812;2023-04-07T13:02:24;22.50;49.30
71672;DHT22;67659;45.554;11.812;2023-04-07T13:04:50;22.50;49.50
71672;DHT22;67659;45.554;11.812;2023-04-07T13:07:16;22.50;49.30
71672;DHT22;67659;45.554;11.812;2023-04-07T13:09:41;22.50;50.10
71672;DHT22;67659;45.554;11.812;2023-04-07T13:12:10;22.50;50.00
71672;DHT22;67659;45.554;11.812;2023-04-07T13:14:38;22.50;49.50
71672;DHT22;67659;45.554;11.812;2023-04-07T13:17:06;22.60;49.30
71672;DHT22;67659;45.554;11.812;2023-04-07T13:19:33;22.50;49.30
71672;DHT22;67659;45.554;11.812;2023-04-07T13:21:59;22.40;50.40
71672;DHT22;67659;45.554;11.812;2023-04-07T13:24:25;22.50;51.40
71672;DHT22;67659;45.554;11.812;2023-04-07T13:26:52;22.50;49.40
71672;DHT22;67659;45.554;11.812;2023-04-07T13:29:18;22.40;49.20
71672;DHT22;67659;45.554;11.812;2023-04-07T13:31:47;22.40;48.10
71672;DHT22;67659;45.554;11.812;2023-04-07T13:34:13;22.20;46.70
71672;DHT22;67659;45.554;11.812;2023-04-07T13:36:40;22.20;46.80
71672;DHT22;67659;45.554;11.812;2023-04-07T13:39:06;22.10;46.00
71672;DHT22;67659;45.554;11.812;2023-04-07T13:41:32;22.10;47.60
71672;DHT22;67659;45.554;11.812;2023-04-07T13:43:59;22.20;48.30
71672;DHT22;67659;45.554;11.812;2023-04-07T13:46:26;22.10;48.30
71672;DHT22;67659;45.554;11.812;2023-04-07T13:48:51;22.20;49.60
71672;DHT22;67659;45.554;11.812;2023-04-07T13:51:17;22.30;49.50
71672;DHT22;67659;45.554;11.812;2023-04-07T13:53:44;22.30;50.10
71672;DHT22;67659;45.554;11.812;2023-04-07T13:56:10;22.30;49.40
71672;DHT22;67659;45.554;11.812;2023-04-07T13:58:36;22.30;49.30
71672;DHT22;67659;45.554;11.812;2023-04-07T14:01:02;22.30;49.00
71672;DHT22;67659;45.554;11.812;2023-04-07T14:03:28;22.30;49.00
71672;DHT22;67659;45.554;11.812;2023-04-07T14:05:54;22.30;48.50
71672;DHT22;67659;45.554;11.812;2023-04-07T14:08:25;22.30;47.80
71672;DHT22;67659;45.554;11.812;2023-04-07T14:10:52;22.30;47.50
71672;DHT22;67659;45.554;11.812;2023-04-07T14:13:18;22.30;47.20
71672;DHT22;67659;45.554;11.812;2023-04-07T14:15:44;22.20;47.10
71672;DHT22;67659;45.554;11.812;2023-04-07T14:18:10;22.20;46.80
71672;DHT22;67659;45.554;11.812;2023-04-07T14:20:36;22.20;47.40
71672;DHT22;67659;45.554;11.812;2023-04-07T14:23:02;22.20;47.30
71672;DHT22;67659;45.554;11.812;2023-04-07T14:25:27;22.20;47.30
71672;DHT22;67659;45.554;11.812;2023-04-07T14:27:53;22.20;47.50
71672;DHT22;67659;45.554;11.812;2023-04-07T14:30:19;22.30;47.30
71672;DHT22;67659;45.554;11.812;2023-04-07T14:32:45;22.20;47.30
71672;DHT22;67659;45.554;11.812;2023-04-07T14:35:11;22.30;46.80
71672;DHT22;67659;45.554;11.812;2023-04-07T14:37:37;22.30;47.30
71672;DHT22;67659;45.554;11.812;2023-04-07T14:40:04;22.20;46.40
71672;DHT22;67659;45.554;11.812;2023-04-07T14:42:30;22.20;46.20
71672;DHT22;67659;45.554;11.812;2023-04-07T14:44:57;22.10;46.00
71672;DHT22;67659;45.554;11.812;2023-04-07T14:47:24;22.10;45.40
71672;DHT22;67659;45.554;11.812;2023-04-07T14:49:50;22.10;45.90
71672;DHT22;67659;45.554;11.812;2023-04-07T14:52:16;22.10;45.60
71672;DHT22;67659;45.554;11.812;2023-04-07T14:54:42;22.20;45.70
71672;DHT22;67659;45.554;11.812;2023-04-07T14:57:08;22.10;46.00
71672;DHT22;67659;45.554;11.812;2023-04-07T14:59:34;22.10;45.80
71672;DHT22;67659;45.554;11.812;2023-04-07T15:02:00;22.10;45.90
71672;DHT22;67659;45.554;11.812;2023-04-07T15:04:25;22.10;45.70
71672;DHT22;67659;45.554;11.812;2023-04-07T15:06:51;22.10;45.80
71672;DHT22;67659;45.554;11.812;2023-04-07T15:09:17;22.10;46.10
71672;DHT22;67659;45.554;11.812;2023-04-07T15:11:43;22.10;45.70
71672;DHT22;67659;45.554;11.812;2023-04-07T15:14:13;22.10;45.70
71672;DHT22;67659;45.554;11.812;2023-04-07T15:16:39;22.10;45.90
71672;DHT22;67659;45.554;11.812;2023-04-07T15:19:05;22.10;45.80
71672;DHT22;67659;45.554;11.812;2023-04-07T15:21:30;22.10;46.00
71672;DHT22;67659;45.554;11.812;2023-04-07T15:23:56;22.20;45.80
71672;DHT22;67659;45.554;11.812;2023-04-07T15:26:22;22.20;46.20
71672;DHT22;67659;45.554;11.812;2023-04-07T15:28:48;22.20;46.30
71672;DHT22;67659;45.554;11.812;2023-04-07T15:31:14;22.20;46.50
71672;DHT22;67659;45.554;11.812;2023-04-07T15:33:40;22.20;46.60
71672;DHT22;67659;45.554;11.812;2023-04-07T15:36:07;22.20;46.60
71672;DHT22;67659;45.554;11.812;2023-04-07T15:38:33;22.20;46.40
71672;DHT22;67659;45.554;11.812;2023-04-07T15:40:59;22.30;46.70
71672;DHT22;67659;45.554;11.812;2023-04-07T15:43:25;22.30;46.70
71672;DHT22;67659;45.554;11.812;2023-04-07T15:45:53;22.20;47.00
71672;DHT22;67659;45.554;11.812;2023-04-07T15:48:20;22.20;47.20